ENRS/RET METAR and TAF weather

Enter ICAO airport designator
Station Type Date Time Source
ENRS METAR 2020/03/31 17:20 UTC NOAA

ENRS 311720Z 34033G43KT 9999 -SHRA SCT016 BKN028 04/01 Q0996


Station Type Date Time Source
ENRS Decoded METAR 2020/03/31 17:20 UTC NOAA

Rost Flyplass, Norway (ENRS) 67-31N 012-06E
Mar 31, 2020 - 01:20 PM EDT / 2020.03.31 1720 UTC
Wind: from the NNW (340 degrees) at 38 MPH (33 KT) gusting to 49 MPH (43 KT):0
Visibility: greater than 7 mile(s):0
Sky conditions: mostly cloudy
Weather: light rain showers
Temperature: 39 F (4 C)
Dew Point: 33 F (1 C)
Relative Humidity: 80%
Pressure (altimeter): 29.41 in. Hg (0996 hPa)
ob: ENRS 311720Z 34033G43KT 9999 -SHRA SCT016 BKN028 04/01 Q0996
cycle: 17

Station Type Date Time Source
ENRS TAF UTC NOAA

Error!

Example: see airport list